Aeroporto :
LOGIN :

Iscrizione | Disclaimer

   EN    FR    IT 

 










Sommario :    VFR   VFR Marginale   IFR   IFR Intensivo   IFR Molto Intensivo
Visibilità : 
Base nubi : 
>= 8 km
>= 3000ft
5 / 8 km
1000 / 3000 ft
1500m / 5 km
500 / 1000 ft
800 / 1500m
200 / 500 ft
< 800m
< 200 ft
Simboli :   Temporali  Nebbia  Neve Forte  Precipitazioni Forti  Vento > 20 kt
SIGMETs :   Varie  Temporali  Ghiacco  Turbolenza  Onda orograficha  Ceneri Vulcaniche






- Altitudine del aeroporto : 517 ft
- Codice IATA : GML


UKKM - Antonov

ULTIMO METAR :
  • 021230Z 21004MPS 170V250 CAVOK 31/15 Q1012 R15/CLRD70 NOSIG

METARs OBSOLETI :
  • 021200Z 23005MPS 190V270 CAVOK 31/15 Q1012 R15/CLRD70 NOSIG
  • 021130Z 21004MPS 160V250 CAVOK 31/15 Q1012 R15/CLRD70 NOSIG
  • 021100Z 22005MPS 160V260 CAVOK 30/15 Q1013 R15/CLRD70 NOSIG
  • 021030Z 21005MPS 160V260 CAVOK 31/16 Q1013 R15/CLRD70 NOSIG
  • 021000Z 20005MPS 160V250 CAVOK 30/16 Q1013 R15/CLRD70 NOSIG

TAF TAF UKKM
Valido dal 02 a 12 ore il 03 a 12 ore UTC


021103Z 0212/0312 20005MPS CAVOK TX31/0212Z TN18/0302Z
BECMG 0216/0218 17002MPS
BECMG 0307/0308 17005MPS



MetMap, La meteo Aeronautica in un colpo d'occhio ! - Copyright ORBIFLY Dicembre 2007 - Disclaimer

ORBIFLY MET'MAP TEAM :

Programmazione e sviluppo : Alexandra Zaïnal
Concezione : Baudouin d'Aumeries
Aiuto per la programmazione : Marc-Olivier Méhu
Supporto tecnico e logistico : Manuel Goepfert
Aiuto per la traduzione : Arnaldo La Scala

Contatto : metmap@orbifly.com




FONTI E CREDITI :

   NOAA